Time;durP1;ratioP1;P1;durP2;ratioP2;P2;SDS_P1;SDS_P2;PMS_P1;PMS_P2;Temp;Humidity;BMP_temperature;BMP_pressure;BME280_temperature;BME280_humidity;BME280_pressure;Samples;Min_cycle;Max_cycle;Signal;HPM_P1;HPM_P2
2021/01/15 00:00:01;;;;;;;32.58;20.25;;;;;;;-5.57;79.73;99125.70;1709358;82;21408;-67
2021/01/15 00:02:31;;;;;;;25.95;15.83;;;;;;;-5.63;79.69;99128.91;1685982;83;21073;-67
2021/01/15 00:04:59;;;;;;;26.80;18.07;;;;;;;-5.68;79.66;99132.11;1687417;83;21089;-68
2021/01/15 00:07:31;;;;;;;28.73;15.95;;;;;;;-5.76;79.63;99131.91;1697173;82;21830;-67
2021/01/15 00:09:59;;;;;;;29.20;19.32;;;;;;;-5.80;79.62;99138.47;1712633;82;21085;-67
2021/01/15 00:12:27;;;;;;;25.52;16.90;;;;;;;-5.85;79.61;99135.22;1713994;82;21129;-68
2021/01/15 00:14:54;;;;;;;22.48;14.18;;;;;;;-5.88;79.62;99131.48;1685340;82;21190;-68
2021/01/15 00:17:22;;;;;;;30.82;18.98;;;;;;;-5.90;79.62;99135.83;1707148;82;21066;-68
2021/01/15 00:19:50;;;;;;;23.73;14.75;;;;;;;-5.94;79.61;99135.11;1696788;81;22115;-68
2021/01/15 00:22:18;;;;;;;23.73;15.60;;;;;;;-5.98;79.60;99131.38;1705293;81;21177;-68
2021/01/15 00:24:47;;;;;;;29.32;17.60;;;;;;;-6.00;79.59;99131.88;1717275;81;21342;-68
2021/01/15 00:27:14;;;;;;;28.90;18.70;;;;;;;-6.02;79.60;99138.81;1715085;83;21579;-68
2021/01/15 00:29:42;;;;;;;29.12;19.07;;;;;;;-6.04;79.57;99141.44;1715344;81;21638;-68
2021/01/15 00:32:11;;;;;;;35.45;21.80;;;;;;;-6.08;79.49;99137.27;1717168;81;21896;-70
2021/01/15 00:34:39;;;;;;;33.85;20.32;;;;;;;-6.12;79.48;99132.67;1716096;83;21449;-68
2021/01/15 00:37:07;;;;;;;39.98;24.07;;;;;;;-6.13;79.46;99128.88;1718738;81;21176;-68
2021/01/15 00:39:35;;;;;;;39.58;23.73;;;;;;;-6.16;79.47;99127.69;1709653;81;21128;-68
2021/01/15 00:42:04;;;;;;;44.30;25.60;;;;;;;-6.16;79.45;99132.39;1722311;81;21161;-67
2021/01/15 00:44:32;;;;;;;39.85;24.25;;;;;;;-6.18;79.43;99126.88;1713290;81;21950;-67
2021/01/15 00:47:00;;;;;;;41.37;24.55;;;;;;;-6.19;79.42;99135.48;1729908;83;21124;-67
2021/01/15 00:49:29;;;;;;;38.83;23.15;;;;;;;-6.22;79.40;99131.28;1713699;81;21488;-67
2021/01/15 00:51:58;;;;;;;29.92;18.25;;;;;;;-6.23;79.37;99130.05;1711908;81;21164;-67
2021/01/15 00:54:28;;;;;;;31.70;19.70;;;;;;;-6.25;79.38;99129.27;1727653;81;21077;-68
2021/01/15 00:57:02;;;;;;;37.95;22.87;;;;;;;-6.27;79.37;99134.88;1709177;81;21965;-67
2021/01/15 00:59:31;;;;;;;32.25;20.08;;;;;;;-6.29;79.40;99143.08;1727182;81;21101;-66
2021/01/15 01:02:01;;;;;;;36.48;22.87;;;;;;;-6.31;79.39;99137.98;1727621;81;21504;-67
2021/01/15 01:04:30;;;;;;;35.10;20.72;;;;;;;-6.35;79.35;99137.26;1708576;81;21096;-67
2021/01/15 01:06:59;;;;;;;38.40;22.98;;;;;;;-6.36;79.36;99134.30;1725127;83;21515;-68
2021/01/15 01:09:27;;;;;;;36.65;22.32;;;;;;;-6.36;79.38;99133.01;1684886;83;22107;-67
2021/01/15 01:11:59;;;;;;;34.18;21.68;;;;;;;-6.37;79.39;99130.45;1710439;81;21144;-69
2021/01/15 01:14:27;;;;;;;20.88;12.40;;;;;;;-6.36;79.39;99134.30;1718317;83;21077;-67
2021/01/15 01:16:55;;;;;;;25.23;17.17;;;;;;;-6.37;79.37;99126.19;1701553;83;21156;-67
2021/01/15 01:19:23;;;;;;;40.23;21.77;;;;;;;-6.39;79.36;99143.80;1725235;81;20942;-67
2021/01/15 01:21:51;;;;;;;33.98;20.00;;;;;;;-6.43;79.34;99139.66;1720248;81;21884;-68
2021/01/15 01:24:19;;;;;;;48.85;25.15;;;;;;;-6.49;79.33;99134.69;1704250;81;21109;-67
2021/01/15 01:26:47;;;;;;;41.50;21.70;;;;;;;-6.49;79.33;99134.69;1703144;81;21445;-67
2021/01/15 01:29:15;;;;;;;41.10;22.10;;;;;;;-6.51;79.42;99134.75;1704426;81;21650;-68
2021/01/15 01:31:44;;;;;;;43.70;24.82;;;;;;;-6.49;79.46;99133.41;1721990;81;21150;-67
2021/01/15 01:34:11;;;;;;;48.75;25.23;;;;;;;-6.50;79.61;99135.14;1703139;81;22092;-67
2021/01/15 01:36:39;;;;;;;36.55;19.07;;;;;;;-6.48;79.68;99134.64;1703477;81;21524;-67
2021/01/15 01:39:07;;;;;;;45.60;24.57;;;;;;;-6.47;79.76;99138.89;1727738;83;21124;-67
2021/01/15 01:41:35;;;;;;;35.00;19.77;;;;;;;-6.42;79.81;99138.77;1727654;81;21183;-67
2021/01/15 01:44:04;;;;;;;34.43;18.20;;;;;;;-6.39;79.88;99135.65;1703029;81;21204;-67
2021/01/15 01:46:32;;;;;;;40.12;22.62;;;;;;;-6.35;79.96;99133.41;1718358;81;22074;-69
2021/01/15 01:49:02;;;;;;;29.55;16.97;;;;;;;-6.30;80.01;99133.69;1710452;83;21476;-67
2021/01/15 01:51:30;;;;;;;27.13;15.70;;;;;;;-6.26;79.83;99132.72;1730023;81;21085;-67
2021/01/15 01:53:58;;;;;;;26.82;15.72;;;;;;;-6.21;80.09;99129.55;1690546;83;21369;-66
2021/01/15 01:56:26;;;;;;;35.25;20.92;;;;;;;-6.17;80.13;99130.70;1700877;84;21410;-69
2021/01/15 01:58:54;;;;;;;187.85;102.55;;;;;;;-6.11;80.17;99137.37;1701674;83;22748;-67
2021/01/15 02:01:25;;;;;;;448.00;265.32;;;;;;;-6.07;80.19;99128.69;1723036;83;21196;-68
2021/01/15 02:04:02;;;;;;;171.43;95.10;;;;;;;-6.02;80.25;99126.80;1728914;81;21172;-67
2021/01/15 02:06:34;;;;;;;69.20;40.70;;;;;;;-5.97;80.18;99130.07;1724341;81;21075;-67
2021/01/15 02:09:06;;;;;;;45.58;30.02;;;;;;;-5.91;80.28;99129.02;1718278;83;21072;-67
2021/01/15 02:11:51;;;;;;;35.98;23.55;;;;;;;-5.88;80.29;99129.75;1718149;81;22057;-68
2021/01/15 02:14:46;;;;;;;35.05;22.25;;;;;;;-5.84;80.31;99130.47;1716120;81;21092;-67
2021/01/15 02:17:17;;;;;;;30.70;19.00;;;;;;;-5.82;80.27;99132.09;1706842;82;21153;-67
2021/01/15 02:20:26;;;;;;;27.37;16.10;;;;;;;-5.80;80.25;99129.47;1713450;82;21089;-67
2021/01/15 02:23:17;;;;;;;29.10;18.80;;;;;;;-5.79;80.27;99125.59;1699645;82;21161;-67
2021/01/15 02:26:25;;;;;;;31.02;19.85;;;;;;;-5.80;80.27;99124.33;1685563;85;21878;-68
2021/01/15 02:29:11;;;;;;;24.65;14.33;;;;;;;-5.78;80.34;99122.57;1702242;82;21193;-67
2021/01/15 02:31:50;;;;;;;34.23;20.20;;;;;;;-5.74;80.21;99129.28;1689547;83;21089;-68
2021/01/15 02:34:36;;;;;;;26.95;16.32;;;;;;;-5.71;80.46;99130.45;1688562;82;21432;-67
2021/01/15 02:37:17;;;;;;;24.23;15.58;;;;;;;-5.68;80.66;99125.67;1698120;83;21152;-67
2021/01/15 02:40:03;;;;;;;27.05;17.17;;;;;;;-5.64;80.52;99128.08;1687195;83;23108;-66
2021/01/15 02:42:35;;;;;;;31.12;18.98;;;;;;;-5.61;80.50;99137.41;1690078;82;21074;-67
2021/01/15 02:45:07;;;;;;;29.10;17.10;;;;;;;-5.59;80.52;99129.23;1685601;85;21533;-69
2021/01/15 02:47:49;;;;;;;32.48;17.80;;;;;;;-5.58;80.52;99128.33;1689545;82;21392;-67
2021/01/15 02:50:21;;;;;;;32.67;19.13;;;;;;;-5.57;80.64;99126.15;1687804;83;21133;-67
2021/01/15 02:52:49;;;;;;;25.90;15.88;;;;;;;-5.55;80.57;99133.36;1686160;82;22072;-67
2021/01/15 02:55:17;;;;;;;29.87;19.23;;;;;;;-5.54;80.57;99135.04;1692913;82;21485;-67
2021/01/15 02:57:45;;;;;;;23.55;15.43;;;;;;;-5.52;80.56;99133.25;1714117;83;21177;-69
2021/01/15 03:00:20;;;;;;;31.23;19.87;;;;;;;-5.50;80.60;99136.59;1698593;82;21189;-67
2021/01/15 03:03:16;;;;;;;25.82;15.68;;;;;;;-5.49;80.58;99134.00;1693052;82;21624;-67
2021/01/15 03:06:15;;;;;;;24.40;17.40;;;;;;;-5.47;80.52;99139.93;1653177;85;23494;-70
2021/01/15 03:08:43;;;;;;;27.02;18.05;;;;;;;-5.48;80.47;99139.54;1693327;82;21193;-68
2021/01/15 03:11:12;;;;;;;27.32;17.20;;;;;;;-5.50;80.45;99127.18;1690349;83;21074;-66
2021/01/15 03:13:40;;;;;;;22.45;15.15;;;;;;;-5.51;80.39;99127.20;1702809;82;21077;-67
2021/01/15 03:16:08;;;;;;;29.23;17.42;;;;;;;-5.53;80.38;99129.83;1697103;83;21133;-67
2021/01/15 03:18:36;;;;;;;34.45;20.90;;;;;;;-5.52;80.36;99130.67;1685905;82;22701;-67
2021/01/15 03:21:05;;;;;;;29.80;18.60;;;;;;;-5.54;80.36;99126.88;1714015;83;21141;-67
2021/01/15 03:23:36;;;;;;;34.67;20.65;;;;;;;-5.54;80.35;99122.17;1726838;81;21484;-67
2021/01/15 03:26:05;;;;;;;26.35;16.70;;;;;;;-5.53;80.29;99112.27;1727966;83;21152;-69
2021/01/15 03:28:33;;;;;;;22.52;15.18;;;;;;;-5.54;80.30;99115.74;1729888;83;21196;-67
2021/01/15 03:31:01;;;;;;;24.12;16.25;;;;;;;-5.55;80.27;99117.48;1728412;81;21877;-66
2021/01/15 03:33:29;;;;;;;22.22;13.70;;;;;;;-5.56;80.28;99118.38;1717527;81;21352;-67
2021/01/15 03:35:57;;;;;;;28.35;18.82;;;;;;;-5.56;80.26;99121.39;1716857;81;21137;-67
2021/01/15 03:38:26;;;;;;;30.57;18.15;;;;;;;-5.55;80.26;99121.78;1729931;83;21395;-67
2021/01/15 03:40:55;;;;;;;29.77;19.02;;;;;;;-5.56;80.26;99123.52;1705827;83;21171;-67
2021/01/15 03:43:23;;;;;;;25.65;15.08;;;;;;;-5.56;80.26;99122.68;1713165;81;22154;-67
2021/01/15 03:45:52;;;;;;;27.93;18.48;;;;;;;-5.56;80.26;99110.66;1706161;83;22244;-67
2021/01/15 03:48:21;;;;;;;32.15;19.42;;;;;;;-5.54;80.26;99119.60;1699434;83;21090;-67
2021/01/15 03:50:50;;;;;;;28.85;18.52;;;;;;;-5.54;80.27;99117.87;1729704;81;21089;-67
2021/01/15 03:53:18;;;;;;;29.15;18.57;;;;;;;-5.53;80.27;99121.28;1718677;81;21084;-67
2021/01/15 03:55:47;;;;;;;23.15;14.13;;;;;;;-5.51;80.31;99127.20;1707419;81;22083;-68
2021/01/15 03:58:15;;;;;;;25.43;17.52;;;;;;;-5.49;80.29;99121.59;1681483;83;21108;-67
2021/01/15 04:00:43;;;;;;;32.03;20.40;;;;;;;-5.49;80.31;99121.14;1723157;81;21491;-67
2021/01/15 04:03:11;;;;;;;35.38;22.02;;;;;;;-5.48;80.30;99118.12;1726943;81;21109;-68
2021/01/15 04:05:42;;;;;;;30.08;18.10;;;;;;;-5.47;80.30;99116.77;1700863;84;21544;-67
2021/01/15 04:08:11;;;;;;;29.60;18.62;;;;;;;-5.44;80.32;99126.56;1719450;83;22833;-67
2021/01/15 04:10:40;;;;;;;29.37;19.48;;;;;;;-5.44;80.34;99121.41;1707953;81;21191;-67
2021/01/15 04:13:08;;;;;;;27.62;18.07;;;;;;;-5.42;80.36;99130.75;1710690;83;21121;-68
2021/01/15 04:15:36;;;;;;;36.38;22.62;;;;;;;-5.41;80.34;99129.86;1721015;83;22667;-67
2021/01/15 04:18:04;;;;;;;30.90;19.73;;;;;;;-5.41;80.23;99125.16;1711628;83;21176;-67
2021/01/15 04:20:33;;;;;;;36.93;23.70;;;;;;;-5.41;80.35;99132.42;1716284;82;22955;-67
2021/01/15 04:23:01;;;;;;;36.50;21.95;;;;;;;-5.41;80.35;99127.28;1700986;82;21148;-67
2021/01/15 04:25:29;;;;;;;34.83;21.57;;;;;;;-5.40;80.37;99125.55;1714262;83;21086;-67
2021/01/15 04:27:57;;;;;;;39.08;24.45;;;;;;;-5.41;80.40;99125.16;1711000;82;21145;-67
2021/01/15 04:30:25;;;;;;;29.50;17.75;;;;;;;-5.40;80.42;99122.56;1698013;82;21121;-67
2021/01/15 04:32:53;;;;;;;37.55;22.30;;;;;;;-5.38;80.42;99125.08;1707030;83;22180;-67
2021/01/15 04:35:20;;;;;;;37.93;21.97;;;;;;;-5.38;80.44;99134.92;1692073;82;21537;-67
2021/01/15 04:37:48;;;;;;;41.60;24.52;;;;;;;-5.38;80.41;99134.08;1697684;82;21070;-66
2021/01/15 04:40:16;;;;;;;32.25;19.40;;;;;;;-5.38;80.41;99132.80;1701591;82;21145;-67
2021/01/15 04:42:46;;;;;;;43.02;26.07;;;;;;;-5.39;80.42;99133.69;1692425;82;21627;-67
2021/01/15 04:45:15;;;;;;;38.28;23.40;;;;;;;-5.39;80.42;99133.69;1712639;82;22118;-67
2021/01/15 04:47:46;;;;;;;35.63;20.80;;;;;;;-5.39;80.43;99134.53;1699138;82;21105;-66
2021/01/15 04:50:16;;;;;;;34.73;18.98;;;;;;;-5.40;80.41;99138.00;1695584;82;21236;-67
2021/01/15 04:52:52;;;;;;;38.35;22.70;;;;;;;-5.39;80.44;99142.70;1692301;83;21180;-66
2021/01/15 04:55:25;;;;;;;36.58;23.25;;;;;;;-5.40;80.44;99145.72;1709594;82;21073;-67
2021/01/15 04:57:54;;;;;;;34.70;22.50;;;;;;;-5.39;80.45;99142.25;1701616;83;21831;-67
2021/01/15 05:00:24;;;;;;;33.88;20.32;;;;;;;-5.39;80.48;99138.39;1698669;82;21106;-68
2021/01/15 05:02:52;;;;;;;31.27;20.43;;;;;;;-5.34;80.51;99145.94;1699041;82;21082;-67
2021/01/15 05:05:24;;;;;;;24.80;15.53;;;;;;;-5.31;80.53;99149.23;1686320;83;21098;-66
2021/01/15 05:08:13;;;;;;;29.32;19.02;;;;;;;-5.26;80.51;99155.52;1691304;82;21066;-67
2021/01/15 05:10:51;;;;;;;31.77;21.15;;;;;;;-5.27;80.50;99155.13;1710799;82;21501;-69
2021/01/15 05:13:18;;;;;;;29.10;18.37;;;;;;;-5.27;80.50;99159.83;1699360;83;21105;-67
2021/01/15 05:15:49;;;;;;;29.92;19.52;;;;;;;-5.27;80.54;99158.55;1701546;82;21102;-68
2021/01/15 05:18:19;;;;;;;34.33;22.60;;;;;;;-5.26;80.55;99158.09;1697215;83;21169;-67
2021/01/15 05:20:48;;;;;;;30.50;21.15;;;;;;;-5.24;80.56;99162.73;1714070;82;21069;-67
2021/01/15 05:23:16;;;;;;;24.57;15.55;;;;;;;-5.23;80.59;99165.25;1704139;83;21889;-68
2021/01/15 05:25:46;;;;;;;33.45;23.05;;;;;;;-5.22;80.58;99177.23;1714114;83;21123;-67
2021/01/15 05:28:15;;;;;;;27.62;19.92;;;;;;;-5.21;80.60;99171.66;1713223;83;21173;-67
2021/01/15 05:30:43;;;;;;;32.10;20.32;;;;;;;-5.18;80.60;99176.69;1672139;83;21638;-68
2021/01/15 05:33:14;;;;;;;31.12;18.17;;;;;;;-5.19;80.61;99175.02;1686515;82;21089;-68
2021/01/15 05:35:47;;;;;;;25.02;16.30;;;;;;;-5.17;80.61;99174.95;1711228;83;22031;-71
2021/01/15 05:38:16;;;;;;;;;;;;;;;-5.16;80.65;99181.78;1716730;83;21093;-69
2021/01/15 05:40:52;;;;;;;30.35;18.15;;;;;;;-5.16;80.66;99185.64;1703809;83;20274;-68
2021/01/15 05:43:31;;;;;;;34.90;20.23;;;;;;;-5.15;80.67;99180.89;1710750;83;21070;-69
2021/01/15 05:46:18;;;;;;;28.87;18.52;;;;;;;-5.14;80.73;99187.27;1711093;83;21078;-69
2021/01/15 05:48:51;;;;;;;40.58;26.37;;;;;;;-5.13;80.73;99193.25;1714103;83;22087;-71
2021/01/15 05:51:33;;;;;;;47.15;28.90;;;;;;;-5.13;80.79;99209.98;1686518;82;21193;-70
2021/01/15 05:54:04;;;;;;;76.30;40.52;;;;;;;-5.13;80.88;99214.69;1687118;83;21106;-70
2021/01/15 05:56:46;;;;;;;47.13;25.95;;;;;;;-5.11;80.86;99219.80;1695732;83;21213;-71
2021/01/15 05:59:18;;;;;;;41.28;20.65;;;;;;;-5.09;80.89;99230.44;1710399;83;21089;-70
2021/01/15 06:01:57;;;;;;;35.13;20.32;;;;;;;-5.12;80.67;99233.09;1690189;83;22035;-71
2021/01/15 06:04:40;;;;;;;31.55;17.98;;;;;;;-5.18;80.50;99233.32;1694631;83;21561;-71
2021/01/15 06:07:16;;;;;;;32.98;18.20;;;;;;;-5.24;80.38;99238.22;1710384;83;21065;-70
2021/01/15 06:09:46;;;;;;;27.73;16.30;;;;;;;-5.27;80.26;99242.19;1704445;83;21221;-72
2021/01/15 06:12:19;;;;;;;62.40;34.48;;;;;;;-5.37;79.99;99239.97;1695979;84;21146;-71
2021/01/15 06:14:52;;;;;;;28.75;17.20;;;;;;;-5.49;79.84;99249.78;1695958;84;22054;-71
2021/01/15 06:17:20;;;;;;;28.15;15.98;;;;;;;-5.56;79.77;99246.16;1696086;84;21498;-71
2021/01/15 06:20:03;;;;;;;29.50;15.03;;;;;;;-5.59;79.72;99253.98;1693714;83;21292;-70
2021/01/15 06:22:37;;;;;;;28.02;16.23;;;;;;;-5.65;79.66;99254.16;1697844;83;21104;-70
2021/01/15 06:25:26;;;;;;;31.80;17.15;;;;;;;-5.70;79.69;99268.88;1724060;81;21148;-70
2021/01/15 06:28:00;;;;;;;32.40;18.40;;;;;;;-5.71;79.76;99273.64;1712504;83;22031;-72
2021/01/15 06:30:31;;;;;;;23.67;12.90;;;;;;;-5.69;79.77;99281.72;1730071;83;21517;-76
2021/01/15 06:33:11;;;;;;;21.25;12.45;;;;;;;-5.69;79.80;99284.71;1711327;83;21393;-71
2021/01/15 06:35:44;;;;;;;27.42;16.05;;;;;;;-5.70;79.79;99284.31;1700484;84;21512;-71
2021/01/15 06:38:19;;;;;;;46.60;22.70;;;;;;;-5.74;79.75;99282.30;1701925;83;21077;-70
2021/01/15 06:40:49;;;;;;;52.23;27.22;;;;;;;-5.76;79.83;99274.63;1704794;81;22804;-69
2021/01/15 06:43:31;;;;;;;79.77;38.17;;;;;;;-5.75;79.90;99280.61;1762745;81;21129;-71
2021/01/15 06:46:05;;;;;;;37.10;20.50;;;;;;;-5.73;79.92;99281.84;1730480;81;21074;-71
2021/01/15 06:48:37;;;;;;;59.40;30.82;;;;;;;-5.70;79.94;99291.59;1729974;83;21591;-69
2021/01/15 06:51:07;;;;;;;64.72;31.68;;;;;;;-5.70;79.78;99295.44;1728851;81;21231;-69
2021/01/15 06:53:43;;;;;;;38.50;20.10;;;;;;;-5.73;79.65;99298.13;1702366;81;21840;-70
2021/01/15 06:56:18;;;;;;;61.53;32.65;;;;;;;-5.78;79.34;99305.16;1721084;81;21066;-71
2021/01/15 06:58:46;;;;;;;86.65;46.48;;;;;;;-5.82;79.33;99308.23;1694713;83;21156;-69
2021/01/15 07:01:22;;;;;;;31.62;18.45;;;;;;;-5.80;79.37;99305.17;1717480;83;21311;-68
2021/01/15 07:04:29;;;;;;;41.13;24.52;;;;;;;-5.76;79.31;99310.64;1729987;81;21326;-69
2021/01/15 07:07:12;;;;;;;25.00;13.65;;;;;;;-5.78;79.17;99316.72;1672991;84;21909;-71
2021/01/15 07:09:45;;;;;;;24.00;13.98;;;;;;;-5.76;79.21;99323.94;1701113;81;21092;-69
2021/01/15 07:12:18;;;;;;;28.75;15.58;;;;;;;-5.74;79.23;99323.89;1716743;83;21057;-69
2021/01/15 07:14:56;;;;;;;25.17;14.18;;;;;;;-5.77;79.11;99326.12;1731981;81;21186;-69
2021/01/15 07:17:30;;;;;;;20.72;12.70;;;;;;;-5.76;79.10;99320.92;1727088;83;21413;-68
2021/01/15 07:20:14;;;;;;;27.42;16.35;;;;;;;-5.76;79.07;99326.52;1730010;83;22059;-69
2021/01/15 07:23:12;;;;;;;27.48;16.17;;;;;;;-5.76;78.93;99328.64;1717766;82;21281;-68
2021/01/15 07:25:44;;;;;;;26.27;14.55;;;;;;;-5.75;78.97;99329.48;1714312;83;21082;-68
2021/01/15 07:28:12;;;;;;;31.60;17.80;;;;;;;-5.68;79.01;99332.72;1705106;83;21106;-69
2021/01/15 07:30:40;;;;;;;21.05;12.15;;;;;;;-5.68;78.94;99335.30;1695959;83;21138;-68
2021/01/15 07:33:08;;;;;;;25.10;14.80;;;;;;;-5.65;78.89;99344.19;1700884;82;22052;-66
2021/01/15 07:35:37;;;;;;;24.25;13.90;;;;;;;-5.69;78.68;99342.16;1703261;82;21137;-70
2021/01/15 07:38:11;;;;;;;25.68;15.58;;;;;;;-5.69;78.53;99340.88;1709087;82;21437;-70
2021/01/15 07:40:39;;;;;;;49.48;24.40;;;;;;;-5.68;78.58;99348.16;1703674;83;21101;-72
2021/01/15 07:43:15;;;;;;;72.53;33.55;;;;;;;-5.70;78.39;99347.33;1694635;83;21615;-69
2021/01/15 07:45:46;;;;;;;287.33;112.55;;;;;;;-5.72;78.27;99353.81;1666665;82;22810;-70
2021/01/15 07:48:15;;;;;;;72.60;32.58;;;;;;;-5.77;78.06;99345.41;1711784;83;21161;-69
2021/01/15 07:50:45;;;;;;;158.25;68.92;;;;;;;-5.80;77.90;99350.17;1704665;82;21192;-70
2021/01/15 07:53:22;;;;;;;206.65;102.55;;;;;;;-5.83;77.81;99362.28;1707681;82;21100;-67
2021/01/15 07:55:57;;;;;;;120.50;64.82;;;;;;;-5.86;77.71;99357.24;1677319;83;21069;-68
2021/01/15 07:58:40;;;;;;;44.18;23.80;;;;;;;-5.89;77.67;99356.86;1713853;82;22841;-69
2021/01/15 08:01:11;;;;;;;92.00;58.20;;;;;;;-5.92;77.50;99357.44;1694369;82;21415;-69
2021/01/15 08:03:52;;;;;;;46.25;25.72;;;;;;;-5.93;77.59;99364.76;1706856;82;21078;-69
2021/01/15 08:06:19;;;;;;;27.82;16.40;;;;;;;-5.88;77.66;99366.73;1712137;82;21370;-69
2021/01/15 08:09:07;;;;;;;33.33;18.32;;;;;;;-5.89;77.68;99369.72;1707153;82;21129;-73
2021/01/15 08:11:37;;;;;;;48.15;25.85;;;;;;;-5.85;77.53;99377.77;1686926;82;22094;-68
2021/01/15 08:17:14;;;;;;;50.45;32.83;;;;;;;-5.81;77.46;99387.06;1871563;76;28365;-69
2021/01/15 08:19:42;;;;;;;68.20;34.90;;;;;;;-5.76;77.50;99390.80;1829147;77;21533;-69
2021/01/15 08:22:15;;;;;;;38.70;21.27;;;;;;;-5.71;77.36;99385.52;1815600;77;24277;-69
2021/01/15 08:24:48;;;;;;;24.02;15.25;;;;;;;-5.78;77.27;99390.86;1776820;79;21141;-71
2021/01/15 08:27:20;;;;;;;24.90;14.75;;;;;;;-5.80;77.21;99384.89;1784298;79;21059;-71
2021/01/15 08:29:50;;;;;;;23.55;13.83;;;;;;;-5.86;76.92;99391.52;1765007;80;21161;-69
2021/01/15 08:32:18;;;;;;;25.80;13.45;;;;;;;-5.90;76.90;99393.75;1835477;77;21037;-71
2021/01/15 08:34:46;;;;;;;19.27;11.85;;;;;;;-5.97;76.82;99393.58;1828727;77;21890;-72
2021/01/15 08:37:16;;;;;;;22.60;12.37;;;;;;;-5.98;76.76;99398.33;1822439;77;21507;-70
2021/01/15 08:39:51;;;;;;;22.58;13.83;;;;;;;-6.03;76.69;99407.88;1820909;77;21120;-69
2021/01/15 08:42:19;;;;;;;21.60;12.90;;;;;;;-6.07;76.81;99404.56;1804046;77;21149;-68
2021/01/15 08:44:50;;;;;;;21.77;13.75;;;;;;;-6.03;76.97;99413.47;1833386;77;21057;-69
2021/01/15 08:47:20;;;;;;;25.65;14.70;;;;;;;-6.03;76.73;99413.02;1745729;80;22121;-70
2021/01/15 08:49:57;;;;;;;20.92;12.85;;;;;;;-6.05;76.69;99407.09;1780968;79;21501;-71
2021/01/15 08:52:29;;;;;;;29.32;17.02;;;;;;;-6.01;76.82;99414.26;1827560;76;21458;-70
2021/01/15 08:54:59;;;;;;;62.90;31.40;;;;;;;-5.94;76.71;99413.22;1836858;76;21098;-69
2021/01/15 08:57:28;;;;;;;39.78;21.93;;;;;;;-6.00;76.40;99413.38;1822643;77;21167;-68
2021/01/15 09:00:13;;;;;;;51.73;27.07;;;;;;;-5.99;76.55;99413.32;1765832;80;22006;-69
2021/01/15 09:02:42;;;;;;;37.90;20.15;;;;;;;-5.90;76.61;99420.75;1823506;77;21094;-65
2021/01/15 09:05:14;;;;;;;48.80;28.00;;;;;;;-5.91;76.24;99423.41;1815705;77;21355;-69
2021/01/15 09:07:44;;;;;;;30.68;16.17;;;;;;;-5.92;76.30;99427.70;1802930;79;21185;-70
2021/01/15 09:10:14;;;;;;;46.73;24.85;;;;;;;-5.86;76.19;99428.80;1831458;77;21121;-70
2021/01/15 09:12:48;;;;;;;38.65;19.65;;;;;;;-5.91;75.99;99430.67;1830573;77;21872;-70
2021/01/15 09:15:26;;;;;;;33.85;18.85;;;;;;;-5.92;75.90;99439.27;1832838;77;21596;-67
2021/01/15 09:17:55;;;;;;;30.82;17.42;;;;;;;-5.94;75.92;99439.77;1813424;78;21156;-72
2021/01/15 09:20:23;;;;;;;61.28;30.45;;;;;;;-5.98;75.58;99434.73;1821677;78;21492;-71
2021/01/15 09:22:52;;;;;;;58.65;27.62;;;;;;;-6.01;75.62;99440.80;1820160;78;21116;-70
2021/01/15 09:25:20;;;;;;;30.97;16.45;;;;;;;-6.04;75.52;99434.47;1819893;78;22087;-71
2021/01/15 09:27:49;;;;;;;36.35;19.57;;;;;;;-6.08;75.66;99435.42;1813830;78;21202;-72
2021/01/15 09:30:19;;;;;;;23.35;13.93;;;;;;;-6.06;75.74;99434.52;1804269;78;21113;-70
2021/01/15 09:32:46;;;;;;;17.70;10.85;;;;;;;-6.07;75.56;99437.14;1821391;78;21037;-69
2021/01/15 09:35:19;;;;;;;19.80;11.97;;;;;;;-6.11;75.61;99440.21;1814638;78;21480;-69
2021/01/15 09:37:47;;;;;;;19.75;12.13;;;;;;;-6.12;75.62;99445.40;1802865;78;21881;-69
2021/01/15 09:40:16;;;;;;;28.07;16.12;;;;;;;-6.16;75.57;99447.66;1806665;78;21104;-70
2021/01/15 09:42:49;;;;;;;18.45;10.80;;;;;;;-6.15;75.66;99448.06;1820471;78;21046;-71
2021/01/15 09:45:16;;;;;;;18.17;11.20;;;;;;;-6.16;75.77;99446.38;1820579;78;21041;-69
2021/01/15 09:47:46;;;;;;;15.28;9.15;;;;;;;-6.15;75.48;99445.05;1811831;78;21685;-69
2021/01/15 09:50:15;;;;;;;17.12;9.83;;;;;;;-6.14;74.88;99443.31;1818694;78;22071;-69
2021/01/15 09:52:47;;;;;;;18.07;9.78;;;;;;;-6.19;74.30;99442.14;1821073;78;21117;-68
2021/01/15 09:55:17;;;;;;;17.32;9.75;;;;;;;-6.21;74.16;99438.77;1815799;78;21037;-70
2021/01/15 09:57:48;;;;;;;15.35;6.75;;;;;;;-6.14;74.03;99440.75;1789948;78;21495;-69
2021/01/15 10:00:18;;;;;;;13.75;7.80;;;;;;;-6.12;73.61;99453.11;1807793;78;21169;-71
2021/01/15 10:02:45;;;;;;;14.38;7.90;;;;;;;-6.15;72.98;99445.48;1795440;78;22946;-68
2021/01/15 10:05:16;;;;;;;13.28;8.00;;;;;;;-6.18;72.58;99441.69;1816725;78;21057;-70
2021/01/15 10:07:45;;;;;;;12.25;7.60;;;;;;;-6.12;72.69;99442.38;1819083;78;21385;-71
2021/01/15 10:10:14;;;;;;;13.62;8.15;;;;;;;-6.12;72.69;99442.38;1819921;78;21112;-71
2021/01/15 10:12:45;;;;;;;13.28;8.08;;;;;;;-6.04;72.37;99447.77;1818297;78;21108;-68
2021/01/15 10:15:14;;;;;;;14.98;7.65;;;;;;;-6.04;72.31;99446.48;1772502;79;21871;-67
2021/01/15 10:17:46;;;;;;;13.68;8.50;;;;;;;-5.99;72.28;99445.91;1756707;80;21116;-67
2021/01/15 10:20:16;;;;;;;13.15;7.70;;;;;;;-5.97;72.34;99454.44;1775777;80;21173;-69
2021/01/15 10:22:44;;;;;;;14.15;7.95;;;;;;;-5.92;72.46;99445.70;1747397;82;21057;-67
2021/01/15 10:25:13;;;;;;;11.95;6.67;;;;;;;-5.88;72.51;99440.02;1717201;81;21125;-71
2021/01/15 10:27:41;;;;;;;13.22;6.87;;;;;;;-5.87;72.49;99436.56;1773825;80;22060;-69
2021/01/15 10:30:10;;;;;;;14.30;7.33;;;;;;;-5.91;72.43;99446.55;1732345;81;21181;-70
2021/01/15 10:32:39;;;;;;;12.10;6.50;;;;;;;-5.99;72.47;99444.17;1779767;80;21090;-68
2021/01/15 10:35:09;;;;;;;11.70;7.65;;;;;;;-6.06;72.64;99446.53;1779122;80;22406;-73
2021/01/15 10:37:39;;;;;;;10.85;6.33;;;;;;;-6.00;72.98;99448.92;1773447;80;21545;-70
2021/01/15 10:40:09;;;;;;;12.58;7.53;;;;;;;-5.84;73.36;99440.32;1779321;80;22058;-69
2021/01/15 10:42:39;;;;;;;17.05;10.03;;;;;;;-5.68;73.17;99440.75;1778945;80;21489;-68
2021/01/15 10:45:08;;;;;;;15.20;8.95;;;;;;;-5.57;73.01;99447.70;1771101;81;21078;-70
2021/01/15 10:47:41;;;;;;;19.12;12.90;;;;;;;-5.57;72.40;99443.84;1771052;81;21126;-68
2021/01/15 10:50:13;;;;;;;28.30;15.50;;;;;;;-5.60;72.46;99451.63;1770762;81;21134;-68
2021/01/15 10:52:51;;;;;;;54.45;27.58;;;;;;;-5.51;72.51;99451.38;1777020;80;22058;-68
2021/01/15 10:55:20;;;;;;;37.40;18.98;;;;;;;-5.50;72.27;99442.77;1757912;80;21174;-68
2021/01/15 10:57:49;;;;;;;20.25;13.70;;;;;;;-5.63;71.73;99450.00;1754108;79;21452;-69
2021/01/15 11:00:20;;;;;;;30.95;20.45;;;;;;;-5.76;71.90;99449.52;1779591;80;21067;-67
2021/01/15 11:02:50;;;;;;;19.12;13.00;;;;;;;-5.81;72.07;99456.50;1758891;81;21050;-69
2021/01/15 11:05:18;;;;;;;28.77;18.10;;;;;;;-5.90;71.98;99460.61;1754823;80;21883;-67
2021/01/15 11:07:46;;;;;;;77.80;39.48;;;;;;;-5.96;71.46;99469.82;1768174;80;21078;-68
2021/01/15 11:10:15;;;;;;;18.65;10.25;;;;;;;-5.98;71.62;99470.31;1767571;80;21061;-67
2021/01/15 11:12:45;;;;;;;19.05;10.82;;;;;;;-5.99;70.95;99468.59;1766931;80;21080;-67
2021/01/15 11:15:13;;;;;;;39.85;19.62;;;;;;;-6.14;70.50;99466.45;1776101;80;20943;-67
2021/01/15 11:17:41;;;;;;;26.48;14.45;;;;;;;-6.27;70.66;99465.94;1795051;78;21881;-67
2021/01/15 11:20:10;;;;;;;17.35;9.98;;;;;;;-6.29;70.64;99475.83;1792009;80;21180;-68
2021/01/15 11:22:41;;;;;;;18.95;10.00;;;;;;;-6.35;70.62;99477.69;1789539;80;21160;-68
2021/01/15 11:25:11;;;;;;;15.58;8.85;;;;;;;-6.43;70.08;99477.02;1764033;80;21168;-68
2021/01/15 11:27:39;;;;;;;23.18;12.25;;;;;;;-6.50;69.97;99480.63;1767620;80;21189;-68
2021/01/15 11:30:08;;;;;;;17.45;8.48;;;;;;;-6.57;69.94;99476.95;1741408;81;22798;-67
2021/01/15 11:32:40;;;;;;;15.93;9.23;;;;;;;-6.59;70.23;99483.85;1787839;79;21632;-70
2021/01/15 11:35:09;;;;;;;23.52;10.88;;;;;;;-6.60;70.15;99478.31;1777953;79;21136;-67
2021/01/15 11:37:37;;;;;;;21.12;10.35;;;;;;;-6.63;70.41;99475.39;1754165;80;21217;-68
2021/01/15 11:40:08;;;;;;;11.18;7.53;;;;;;;-6.50;70.29;99479.34;1771814;80;21043;-67